sensor_id;sensor_type;location;lat;lon;timestamp;pressure;altitude;pressure_sealevel;temperature;humidity
11440;BME280;5776;51.814;4.510;2022-07-29T00:01:16;101830.78;;;18.48;61.39
11440;BME280;5776;51.814;4.510;2022-07-29T00:03:42;101829.44;;;18.46;60.89
11440;BME280;5776;51.814;4.510;2022-07-29T00:06:08;101826.09;;;18.49;61.00
11440;BME280;5776;51.814;4.510;2022-07-29T00:08:34;101821.19;;;18.46;61.25
11440;BME280;5776;51.814;4.510;2022-07-29T00:11:00;101816.53;;;18.46;61.81
11440;BME280;5776;51.814;4.510;2022-07-29T00:13:26;101808.59;;;18.45;61.40
11440;BME280;5776;51.814;4.510;2022-07-29T00:15:52;101819.09;;;18.43;61.99
11440;BME280;5776;51.814;4.510;2022-07-29T00:18:18;101811.97;;;18.42;61.52
11440;BME280;5776;51.814;4.510;2022-07-29T00:20:43;101807.28;;;18.42;61.54
11440;BME280;5776;51.814;4.510;2022-07-29T00:23:09;101809.88;;;18.39;61.20
11440;BME280;5776;51.814;4.510;2022-07-29T00:25:35;101806.28;;;18.38;61.63
11440;BME280;5776;51.814;4.510;2022-07-29T00:28:01;101807.72;;;18.35;62.13
11440;BME280;5776;51.814;4.510;2022-07-29T00:30:27;101807.56;;;18.32;61.94
11440;BME280;5776;51.814;4.510;2022-07-29T00:32:53;101807.06;;;18.30;62.41
11440;BME280;5776;51.814;4.510;2022-07-29T00:35:19;101804.31;;;18.30;61.55
11440;BME280;5776;51.814;4.510;2022-07-29T00:38:04;101795.25;;;18.29;62.49
11440;BME280;5776;51.814;4.510;2022-07-29T00:40:30;101798.00;;;18.29;62.19
11440;BME280;5776;51.814;4.510;2022-07-29T00:42:56;101803.50;;;18.29;62.06
11440;BME280;5776;51.814;4.510;2022-07-29T00:45:22;101793.66;;;18.28;62.19
11440;BME280;5776;51.814;4.510;2022-07-29T00:47:48;101804.94;;;18.27;62.00
11440;BME280;5776;51.814;4.510;2022-07-29T00:50:14;101791.50;;;18.25;62.33
11440;BME280;5776;51.814;4.510;2022-07-29T00:52:41;101797.50;;;18.27;62.12
11440;BME280;5776;51.814;4.510;2022-07-29T00:55:11;101793.66;;;18.28;61.99
11440;BME280;5776;51.814;4.510;2022-07-29T00:57:37;101797.00;;;18.25;62.65
11440;BME280;5776;51.814;4.510;2022-07-29T01:00:06;101790.53;;;18.21;62.41
11440;BME280;5776;51.814;4.510;2022-07-29T01:02:32;101794.72;;;18.19;61.98
11440;BME280;5776;51.814;4.510;2022-07-29T01:04:59;101787.28;;;18.19;62.25
11440;BME280;5776;51.814;4.510;2022-07-29T01:07:26;101790.84;;;18.20;62.62
11440;BME280;5776;51.814;4.510;2022-07-29T01:09:54;101783.53;;;18.15;62.94
11440;BME280;5776;51.814;4.510;2022-07-29T01:12:25;101785.47;;;18.14;63.12
11440;BME280;5776;51.814;4.510;2022-07-29T01:14:54;101791.78;;;18.15;62.50
11440;BME280;5776;51.814;4.510;2022-07-29T01:17:25;101780.00;;;18.14;62.87
11440;BME280;5776;51.814;4.510;2022-07-29T01:19:58;101784.19;;;18.12;62.97
11440;BME280;5776;51.814;4.510;2022-07-29T01:30:35;101784.47;;;18.10;61.99
11440;BME280;5776;51.814;4.510;2022-07-29T01:33:06;101783.19;;;18.08;62.77
11440;BME280;5776;51.814;4.510;2022-07-29T01:35:39;101781.56;;;18.07;62.36
11440;BME280;5776;51.814;4.510;2022-07-29T01:38:12;101783.19;;;18.08;62.42
11440;BME280;5776;51.814;4.510;2022-07-29T01:40:52;101775.56;;;18.05;63.19
11440;BME280;5776;51.814;4.510;2022-07-29T01:43:31;101772.03;;;18.04;62.71
11440;BME280;5776;51.814;4.510;2022-07-29T01:46:09;101769.56;;;18.03;63.46
11440;BME280;5776;51.814;4.510;2022-07-29T01:48:44;101772.53;;;18.06;62.68
11440;BME280;5776;51.814;4.510;2022-07-29T01:51:19;101766.53;;;18.04;62.83
11440;BME280;5776;51.814;4.510;2022-07-29T01:53:52;101772.81;;;18.05;62.98
11440;BME280;5776;51.814;4.510;2022-07-29T01:56:23;101764.06;;;18.03;62.69
11440;BME280;5776;51.814;4.510;2022-07-29T01:58:52;101756.81;;;17.98;62.60
11440;BME280;5776;51.814;4.510;2022-07-29T02:01:19;101763.59;;;18.01;63.30
11440;BME280;5776;51.814;4.510;2022-07-29T02:03:47;101761.16;;;17.99;63.29
11440;BME280;5776;51.814;4.510;2022-07-29T02:06:16;101758.22;;;17.96;63.13
11440;BME280;5776;51.814;4.510;2022-07-29T02:08:45;101755.47;;;17.96;63.68
11440;BME280;5776;51.814;4.510;2022-07-29T02:11:13;101750.81;;;17.96;63.11
11440;BME280;5776;51.814;4.510;2022-07-29T02:13:40;101748.06;;;17.96;63.05
11440;BME280;5776;51.814;4.510;2022-07-29T02:16:08;101755.81;;;17.94;63.64
11440;BME280;5776;51.814;4.510;2022-07-29T02:18:37;101757.25;;;17.91;63.70
11440;BME280;5776;51.814;4.510;2022-07-29T02:21:05;101758.34;;;17.90;63.66
11440;BME280;5776;51.814;4.510;2022-07-29T02:23:32;101756.44;;;17.91;62.89
11440;BME280;5776;51.814;4.510;2022-07-29T02:25:59;101741.88;;;17.90;63.39
11440;BME280;5776;51.814;4.510;2022-07-29T02:28:27;101747.69;;;17.89;64.07
11440;BME280;5776;51.814;4.510;2022-07-29T02:30:58;101744.16;;;17.88;63.52
11440;BME280;5776;51.814;4.510;2022-07-29T02:33:25;101752.38;;;17.88;63.17
11440;BME280;5776;51.814;4.510;2022-07-29T02:35:52;101748.19;;;17.91;63.75
11440;BME280;5776;51.814;4.510;2022-07-29T02:38:19;101746.06;;;17.88;63.83
11440;BME280;5776;51.814;4.510;2022-07-29T02:41:11;101749.13;;;17.86;63.85
11440;BME280;5776;51.814;4.510;2022-07-29T02:43:40;101742.84;;;17.86;62.86
11440;BME280;5776;51.814;4.510;2022-07-29T02:46:12;101745.88;;;17.84;63.56
11440;BME280;5776;51.814;4.510;2022-07-29T02:48:43;101742.00;;;17.85;63.37
11440;BME280;5776;51.814;4.510;2022-07-29T02:51:25;101738.44;;;17.85;63.02
11440;BME280;5776;51.814;4.510;2022-07-29T02:53:54;101730.53;;;17.83;63.05
11440;BME280;5776;51.814;4.510;2022-07-29T02:56:25;101741.03;;;17.81;64.29
11440;BME280;5776;51.814;4.510;2022-07-29T02:58:55;101744.88;;;17.80;64.22
11440;BME280;5776;51.814;4.510;2022-07-29T03:01:28;101744.09;;;17.80;63.88
11440;BME280;5776;51.814;4.510;2022-07-29T03:03:56;101738.28;;;17.81;62.90
11440;BME280;5776;51.814;4.510;2022-07-29T03:06:24;101733.41;;;17.78;63.42
11440;BME280;5776;51.814;4.510;2022-07-29T03:08:51;101734.00;;;17.75;64.55
11440;BME280;5776;51.814;4.510;2022-07-29T03:11:18;101733.41;;;17.78;63.52
11440;BME280;5776;51.814;4.510;2022-07-29T03:13:44;101741.13;;;17.76;64.00
11440;BME280;5776;51.814;4.510;2022-07-29T03:16:10;101732.91;;;17.76;63.22
11440;BME280;5776;51.814;4.510;2022-07-29T03:18:38;101739.19;;;17.77;63.30
11440;BME280;5776;51.814;4.510;2022-07-29T03:21:05;101738.38;;;17.76;62.99
11440;BME280;5776;51.814;4.510;2022-07-29T03:23:32;101731.09;;;17.71;63.75
11440;BME280;5776;51.814;4.510;2022-07-29T03:25:58;101734.13;;;17.70;63.07
11440;BME280;5776;51.814;4.510;2022-07-29T03:28:24;101720.22;;;17.66;64.53
11440;BME280;5776;51.814;4.510;2022-07-29T03:30:53;101720.53;;;17.65;64.29
11440;BME280;5776;51.814;4.510;2022-07-29T03:33:18;101727.66;;;17.66;64.25
11440;BME280;5776;51.814;4.510;2022-07-29T03:35:44;101726.84;;;17.65;63.80
11440;BME280;5776;51.814;4.510;2022-07-29T03:38:10;101736.22;;;17.64;64.26
11440;BME280;5776;51.814;4.510;2022-07-29T03:40:54;101736.22;;;17.64;63.83
11440;BME280;5776;51.814;4.510;2022-07-29T03:43:22;101733.47;;;17.64;63.75
11440;BME280;5776;51.814;4.510;2022-07-29T03:45:51;101729.09;;;17.63;63.90
11440;BME280;5776;51.814;4.510;2022-07-29T03:48:20;101719.56;;;17.61;64.40
11440;BME280;5776;51.814;4.510;2022-07-29T03:50:48;101728.91;;;17.60;64.42
11440;BME280;5776;51.814;4.510;2022-07-29T03:53:15;101729.53;;;17.57;64.36
11440;BME280;5776;51.814;4.510;2022-07-29T03:55:45;101733.91;;;17.58;64.01
11440;BME280;5776;51.814;4.510;2022-07-29T03:58:13;101731.16;;;17.58;64.41
11440;BME280;5776;51.814;4.510;2022-07-29T04:00:41;101730.03;;;17.59;64.61
11440;BME280;5776;51.814;4.510;2022-07-29T04:03:08;101728.41;;;17.58;64.21
11440;BME280;5776;51.814;4.510;2022-07-29T04:05:34;101729.25;;;17.58;64.63
11440;BME280;5776;51.814;4.510;2022-07-29T04:08:00;101735.03;;;17.57;63.83
11440;BME280;5776;51.814;4.510;2022-07-29T04:10:27;101736.19;;;17.56;64.30
11440;BME280;5776;51.814;4.510;2022-07-29T04:12:53;101745.84;;;17.53;63.81
11440;BME280;5776;51.814;4.510;2022-07-29T04:15:19;101743.28;;;17.57;63.90
11440;BME280;5776;51.814;4.510;2022-07-29T04:17:45;101748.78;;;17.57;64.76
11440;BME280;5776;51.814;4.510;2022-07-29T04:20:11;101746.66;;;17.54;63.95
11440;BME280;5776;51.814;4.510;2022-07-29T04:22:40;101744.72;;;17.54;64.52
11440;BME280;5776;51.814;4.510;2022-07-29T04:25:07;101740.34;;;17.53;64.60
11440;BME280;5776;51.814;4.510;2022-07-29T04:27:33;101734.66;;;17.49;64.55
11440;BME280;5776;51.814;4.510;2022-07-29T04:29:58;101736.91;;;17.47;65.24
11440;BME280;5776;51.814;4.510;2022-07-29T04:32:25;101738.53;;;17.48;64.40
11440;BME280;5776;51.814;4.510;2022-07-29T04:34:51;101729.81;;;17.46;63.86
11440;BME280;5776;51.814;4.510;2022-07-29T04:37:17;101732.03;;;17.44;64.45
11440;BME280;5776;51.814;4.510;2022-07-29T04:39:42;101735.94;;;17.43;64.88
11440;BME280;5776;51.814;4.510;2022-07-29T04:42:08;101738.16;;;17.41;64.59
11440;BME280;5776;51.814;4.510;2022-07-29T04:44:34;101738.34;;;17.45;64.45
11440;BME280;5776;51.814;4.510;2022-07-29T04:47:00;101746.28;;;17.46;64.72
11440;BME280;5776;51.814;4.510;2022-07-29T04:49:26;101749.66;;;17.43;64.93
11440;BME280;5776;51.814;4.510;2022-07-29T04:51:52;101750.47;;;17.44;63.89
11440;BME280;5776;51.814;4.510;2022-07-29T04:54:18;101746.06;;;17.43;63.94
11440;BME280;5776;51.814;4.510;2022-07-29T04:56:44;101740.59;;;17.43;64.71
11440;BME280;5776;51.814;4.510;2022-07-29T04:59:12;101741.22;;;17.40;64.72
11440;BME280;5776;51.814;4.510;2022-07-29T05:01:38;101743.66;;;17.41;64.89
11440;BME280;5776;51.814;4.510;2022-07-29T05:04:03;101743.47;;;17.38;65.38
11440;BME280;5776;51.814;4.510;2022-07-29T05:06:29;101745.41;;;17.37;65.49
11440;BME280;5776;51.814;4.510;2022-07-29T05:08:55;101746.03;;;17.34;65.30
11440;BME280;5776;51.814;4.510;2022-07-29T05:11:21;101751.00;;;17.32;65.00
11440;BME280;5776;51.814;4.510;2022-07-29T05:13:47;101743.59;;;17.33;64.99
11440;BME280;5776;51.814;4.510;2022-07-29T05:16:13;101742.28;;;17.30;65.11
11440;BME280;5776;51.814;4.510;2022-07-29T05:18:39;101751.53;;;17.34;63.90
11440;BME280;5776;51.814;4.510;2022-07-29T05:21:05;101753.63;;;17.37;65.27
11440;BME280;5776;51.814;4.510;2022-07-29T05:23:31;101756.88;;;17.39;65.39
11440;BME280;5776;51.814;4.510;2022-07-29T05:25:57;101756.06;;;17.39;64.16
11440;BME280;5776;51.814;4.510;2022-07-29T05:28:23;101759.13;;;17.37;65.42
11440;BME280;5776;51.814;4.510;2022-07-29T05:30:49;101758.81;;;17.39;65.20
11440;BME280;5776;51.814;4.510;2022-07-29T05:33:15;101759.13;;;17.37;64.90
11440;BME280;5776;51.814;4.510;2022-07-29T05:35:41;101762.38;;;17.39;65.45
11440;BME280;5776;51.814;4.510;2022-07-29T05:38:07;101764.81;;;17.41;64.72
11440;BME280;5776;51.814;4.510;2022-07-29T05:40:33;101763.19;;;17.40;64.93
11440;BME280;5776;51.814;4.510;2022-07-29T05:42:59;101764.00;;;17.40;64.93
11440;BME280;5776;51.814;4.510;2022-07-29T05:45:25;101764.63;;;17.37;64.65
11440;BME280;5776;51.814;4.510;2022-07-29T05:47:51;101768.75;;;17.48;64.38
11440;BME280;5776;51.814;4.510;2022-07-29T05:50:17;101765.56;;;17.55;64.15
11440;BME280;5776;51.814;4.510;2022-07-29T05:52:43;101774.00;;;17.59;64.29
11440;BME280;5776;51.814;4.510;2022-07-29T05:55:09;101772.06;;;17.59;64.02
11440;BME280;5776;51.814;4.510;2022-07-29T05:57:35;101772.56;;;17.61;62.78
11440;BME280;5776;51.814;4.510;2022-07-29T06:00:02;101771.41;;;17.62;63.02
11440;BME280;5776;51.814;4.510;2022-07-29T06:02:28;101763.97;;;17.63;63.18
11440;BME280;5776;51.814;4.510;2022-07-29T06:04:53;101767.56;;;17.63;63.09
11440;BME280;5776;51.814;4.510;2022-07-29T06:07:19;101775.47;;;17.65;63.07
11440;BME280;5776;51.814;4.510;2022-07-29T06:09:45;101775.47;;;17.65;62.78
11440;BME280;5776;51.814;4.510;2022-07-29T06:12:11;101778.22;;;17.65;62.61
11440;BME280;5776;51.814;4.510;2022-07-29T06:14:37;101779.03;;;17.65;63.12
11440;BME280;5776;51.814;4.510;2022-07-29T06:17:04;101776.47;;;17.69;61.84
11440;BME280;5776;51.814;4.510;2022-07-29T06:19:31;101779.72;;;17.71;62.82
11440;BME280;5776;51.814;4.510;2022-07-29T06:21:59;101775.84;;;17.72;61.71
11440;BME280;5776;51.814;4.510;2022-07-29T06:24:25;101783.78;;;17.74;62.71
11440;BME280;5776;51.814;4.510;2022-07-29T06:26:51;101779.09;;;17.74;62.05
11440;BME280;5776;51.814;4.510;2022-07-29T06:29:17;101783.34;;;17.80;63.05
11440;BME280;5776;51.814;4.510;2022-07-29T06:31:42;101777.06;;;17.80;62.17
11440;BME280;5776;51.814;4.510;2022-07-29T06:34:08;101780.09;;;17.78;62.57
11440;BME280;5776;51.814;4.510;2022-07-29T06:36:35;101777.34;;;17.78;62.28
11440;BME280;5776;51.814;4.510;2022-07-29T06:39:06;101780.09;;;17.78;62.61
11440;BME280;5776;51.814;4.510;2022-07-29T06:41:33;101780.09;;;17.78;61.91
11440;BME280;5776;51.814;4.510;2022-07-29T06:44:00;101781.72;;;17.79;62.83
11440;BME280;5776;51.814;4.510;2022-07-29T06:46:26;101775.13;;;17.80;62.33
11440;BME280;5776;51.814;4.510;2022-07-29T06:48:53;101774.81;;;17.82;62.13
11440;BME280;5776;51.814;4.510;2022-07-29T06:51:19;101775.63;;;17.82;61.69
11440;BME280;5776;51.814;4.510;2022-07-29T06:53:46;101772.56;;;17.84;62.25
11440;BME280;5776;51.814;4.510;2022-07-29T06:56:12;101776.13;;;17.84;62.56
11440;BME280;5776;51.814;4.510;2022-07-29T06:58:39;101784.84;;;17.86;61.89
11440;BME280;5776;51.814;4.510;2022-07-29T07:01:06;101787.28;;;17.88;62.22
11440;BME280;5776;51.814;4.510;2022-07-29T07:03:32;101790.84;;;17.88;62.36
11440;BME280;5776;51.814;4.510;2022-07-29T07:05:59;101797.97;;;17.89;62.43
11440;BME280;5776;51.814;4.510;2022-07-29T07:08:24;101796.81;;;17.90;62.44
11440;BME280;5776;51.814;4.510;2022-07-29T07:10:51;101808.31;;;17.92;61.96
11440;BME280;5776;51.814;4.510;2022-07-29T07:13:18;101802.81;;;17.92;62.04
11440;BME280;5776;51.814;4.510;2022-07-29T07:15:45;101811.56;;;17.95;62.12
11440;BME280;5776;51.814;4.510;2022-07-29T07:18:14;101814.03;;;17.96;62.38
11440;BME280;5776;51.814;4.510;2022-07-29T07:20:41;101818.06;;;17.99;61.99
11440;BME280;5776;51.814;4.510;2022-07-29T07:23:13;101823.25;;;18.00;62.73
11440;BME280;5776;51.814;4.510;2022-07-29T07:25:39;101819.69;;;18.00;62.56
11440;BME280;5776;51.814;4.510;2022-07-29T07:28:05;101828.44;;;18.02;62.42
11440;BME280;5776;51.814;4.510;2022-07-29T07:30:31;101822.63;;;18.03;63.18
11440;BME280;5776;51.814;4.510;2022-07-29T07:32:57;101823.44;;;18.04;62.25
11440;BME280;5776;51.814;4.510;2022-07-29T07:35:23;101822.31;;;18.05;62.77
11440;BME280;5776;51.814;4.510;2022-07-29T07:37:49;101819.25;;;18.06;62.45
11440;BME280;5776;51.814;4.510;2022-07-29T07:40:15;101815.38;;;18.07;62.03
11440;BME280;5776;51.814;4.510;2022-07-29T07:42:41;101815.88;;;18.09;62.10
11440;BME280;5776;51.814;4.510;2022-07-29T07:45:08;101814.41;;;18.12;62.90
11440;BME280;5776;51.814;4.510;2022-07-29T07:47:38;101811.03;;;18.15;62.74
11440;BME280;5776;51.814;4.510;2022-07-29T07:50:06;101809.59;;;18.18;63.60
11440;BME280;5776;51.814;4.510;2022-07-29T07:52:33;101805.91;;;18.22;64.50
11440;BME280;5776;51.814;4.510;2022-07-29T07:55:00;101804.16;;;18.26;64.02
11440;BME280;5776;51.814;4.510;2022-07-29T07:57:26;101797.84;;;18.26;63.92
11440;BME280;5776;51.814;4.510;2022-07-29T07:59:52;101801.91;;;18.28;64.76
11440;BME280;5776;51.814;4.510;2022-07-29T08:02:19;101800.13;;;18.32;64.44
11440;BME280;5776;51.814;4.510;2022-07-29T08:04:44;101802.56;;;18.34;65.61
11440;BME280;5776;51.814;4.510;2022-07-29T08:07:10;101807.59;;;18.41;65.55
11440;BME280;5776;51.814;4.510;2022-07-29T08:09:36;101813.78;;;18.46;65.28
11440;BME280;5776;51.814;4.510;2022-07-29T08:12:03;101818.63;;;18.49;65.43
11440;BME280;5776;51.814;4.510;2022-07-29T08:14:30;101819.94;;;18.52;65.18
11440;BME280;5776;51.814;4.510;2022-07-29T08:16:57;101811.19;;;18.50;65.18
11440;BME280;5776;51.814;4.510;2022-07-29T08:19:23;101808.94;;;18.52;65.23
11440;BME280;5776;51.814;4.510;2022-07-29T08:21:49;101801.69;;;18.56;64.81
11440;BME280;5776;51.814;4.510;2022-07-29T08:24:15;101810.91;;;18.60;65.29
11440;BME280;5776;51.814;4.510;2022-07-29T08:26:59;101805.75;;;18.67;64.43
11440;BME280;5776;51.814;4.510;2022-07-29T08:29:25;101812.25;;;18.71;64.30
11440;BME280;5776;51.814;4.510;2022-07-29T08:31:51;101805.09;;;18.70;64.18
11440;BME280;5776;51.814;4.510;2022-07-29T08:34:17;101803.66;;;18.73;64.56
11440;BME280;5776;51.814;4.510;2022-07-29T08:36:43;101805.16;;;18.79;64.64
11440;BME280;5776;51.814;4.510;2022-07-29T08:39:09;101816.81;;;18.85;64.92
11440;BME280;5776;51.814;4.510;2022-07-29T08:41:35;101813.91;;;18.90;64.50
11440;BME280;5776;51.814;4.510;2022-07-29T08:44:01;101810.03;;;18.91;64.58
11440;BME280;5776;51.814;4.510;2022-07-29T08:46:27;101814.56;;;18.95;64.91
11440;BME280;5776;51.814;4.510;2022-07-29T08:48:55;101810.06;;;18.99;64.38
11440;BME280;5776;51.814;4.510;2022-07-29T08:51:21;101823.66;;;19.05;64.50
11440;BME280;5776;51.814;4.510;2022-07-29T08:53:48;101814.09;;;19.02;64.96
11440;BME280;5776;51.814;4.510;2022-07-29T08:56:15;101815.25;;;19.01;64.48
11440;BME280;5776;51.814;4.510;2022-07-29T08:58:46;101808.75;;;19.06;64.60
11440;BME280;5776;51.814;4.510;2022-07-29T09:01:17;101817.50;;;19.08;64.41
11440;BME280;5776;51.814;4.510;2022-07-29T09:03:46;101813.94;;;19.16;64.69
11440;BME280;5776;51.814;4.510;2022-07-29T09:06:14;101807.81;;;19.19;64.86
11440;BME280;5776;51.814;4.510;2022-07-29T09:08:41;101807.16;;;19.22;64.21
11440;BME280;5776;51.814;4.510;2022-07-29T09:11:07;101807.81;;;19.28;64.86
11440;BME280;5776;51.814;4.510;2022-07-29T09:13:33;101807.00;;;19.36;64.50
11440;BME280;5776;51.814;4.510;2022-07-29T09:15:59;101806.81;;;19.41;64.71
11440;BME280;5776;51.814;4.510;2022-07-29T09:18:42;101803.91;;;19.46;65.05
11440;BME280;5776;51.814;4.510;2022-07-29T09:21:11;101805.84;;;19.46;64.24
11440;BME280;5776;51.814;4.510;2022-07-29T09:24:10;101800.03;;;19.47;64.55
11440;BME280;5776;51.814;4.510;2022-07-29T09:26:39;101807.63;;;19.50;64.02
11440;BME280;5776;51.814;4.510;2022-07-29T09:29:16;101805.22;;;19.57;63.71
11440;BME280;5776;51.814;4.510;2022-07-29T09:31:49;101801.13;;;19.63;64.46
11440;BME280;5776;51.814;4.510;2022-07-29T09:34:20;101806.00;;;19.67;63.68
11440;BME280;5776;51.814;4.510;2022-07-29T09:36:49;101806.50;;;19.69;63.84
11440;BME280;5776;51.814;4.510;2022-07-29T09:39:27;101803.59;;;19.74;62.94
11440;BME280;5776;51.814;4.510;2022-07-29T09:41:54;101795.16;;;19.79;63.10
11440;BME280;5776;51.814;4.510;2022-07-29T09:44:22;101809.41;;;19.81;62.56
11440;BME280;5776;51.814;4.510;2022-07-29T09:47:03;101796.13;;;19.83;62.68
11440;BME280;5776;51.814;4.510;2022-07-29T09:49:36;101803.09;;;19.89;62.37
11440;BME280;5776;51.814;4.510;2022-07-29T09:52:15;101805.66;;;19.94;62.25
11440;BME280;5776;51.814;4.510;2022-07-29T09:54:41;101799.00;;;19.95;62.14
11440;BME280;5776;51.814;4.510;2022-07-29T09:57:09;101795.25;;;20.00;61.60
11440;BME280;5776;51.814;4.510;2022-07-29T10:00:09;101796.25;;;20.04;61.86
11440;BME280;5776;51.814;4.510;2022-07-29T10:02:37;101805.28;;;20.13;60.99
11440;BME280;5776;51.814;4.510;2022-07-29T10:05:16;101801.72;;;20.13;61.05
11440;BME280;5776;51.814;4.510;2022-07-29T10:07:45;101800.84;;;20.21;61.07
11440;BME280;5776;51.814;4.510;2022-07-29T10:10:19;101802.81;;;20.29;60.30
11440;BME280;5776;51.814;4.510;2022-07-29T10:12:50;101796.25;;;20.34;60.52
11440;BME280;5776;51.814;4.510;2022-07-29T10:15:17;101805.38;;;20.34;60.08
11440;BME280;5776;51.814;4.510;2022-07-29T10:17:44;101799.66;;;20.39;60.80
11440;BME280;5776;51.814;4.510;2022-07-29T10:20:10;101793.97;;;20.44;60.25
11440;BME280;5776;51.814;4.510;2022-07-29T10:22:36;101796.06;;;20.47;60.53
11440;BME280;5776;51.814;4.510;2022-07-29T10:25:03;101789.53;;;20.52;60.05
11440;BME280;5776;51.814;4.510;2022-07-29T10:27:29;101791.00;;;20.58;60.52
11440;BME280;5776;51.814;4.510;2022-07-29T10:29:55;101797.00;;;20.60;59.71
11440;BME280;5776;51.814;4.510;2022-07-29T10:32:30;101789.81;;;20.68;59.08
11440;BME280;5776;51.814;4.510;2022-07-29T10:40:29;101787.53;;;20.70;59.40
11440;BME280;5776;51.814;4.510;2022-07-29T10:43:42;101786.66;;;20.78;58.81
11440;BME280;5776;51.814;4.510;2022-07-29T10:46:10;101787.94;;;20.81;59.48
11440;BME280;5776;51.814;4.510;2022-07-29T10:59:42;101783.56;;;21.01;56.74
11440;BME280;5776;51.814;4.510;2022-07-29T11:05:06;101791.09;;;20.91;55.69
11440;BME280;5776;51.814;4.510;2022-07-29T11:07:35;101783.09;;;20.99;54.99
11440;BME280;5776;51.814;4.510;2022-07-29T11:15:16;101780.88;;;21.13;55.77
11440;BME280;5776;51.814;4.510;2022-07-29T11:20:42;101774.94;;;21.23;55.83
11440;BME280;5776;51.814;4.510;2022-07-29T11:26:14;101786.53;;;21.38;55.07
11440;BME280;5776;51.814;4.510;2022-07-29T11:29:15;101778.06;;;21.43;55.14
11440;BME280;5776;51.814;4.510;2022-07-29T11:31:44;101780.19;;;21.37;55.36
11440;BME280;5776;51.814;4.510;2022-07-29T11:34:22;101776.16;;;21.34;56.20
11440;BME280;5776;51.814;4.510;2022-07-29T11:39:38;101775.56;;;21.50;54.85
11440;BME280;5776;51.814;4.510;2022-07-29T11:47:25;101776.38;;;21.50;55.09
11440;BME280;5776;51.814;4.510;2022-07-29T11:49:54;101775.56;;;21.50;53.81
11440;BME280;5776;51.814;4.510;2022-07-29T11:52:20;101779.25;;;21.54;52.60
11440;BME280;5776;51.814;4.510;2022-07-29T11:54:47;101783.75;;;21.58;53.69
11440;BME280;5776;51.814;4.510;2022-07-29T11:57:20;101780.44;;;21.65;54.15
11440;BME280;5776;51.814;4.510;2022-07-29T11:59:47;101777.69;;;21.65;53.13
11440;BME280;5776;51.814;4.510;2022-07-29T12:02:14;101784.59;;;21.71;53.89
11440;BME280;5776;51.814;4.510;2022-07-29T12:04:55;101781.97;;;21.75;53.13
11440;BME280;5776;51.814;4.510;2022-07-29T12:07:33;101792.22;;;21.74;53.94
11440;BME280;5776;51.814;4.510;2022-07-29T12:10:00;101782.44;;;21.77;53.80
11440;BME280;5776;51.814;4.510;2022-07-29T12:12:27;101777.03;;;21.81;52.94
11440;BME280;5776;51.814;4.510;2022-07-29T12:14:53;101786.59;;;21.83;52.18
11440;BME280;5776;51.814;4.510;2022-07-29T12:17:47;101784.16;;;21.82;53.24
11440;BME280;5776;51.814;4.510;2022-07-29T12:20:13;101783.03;;;21.83;52.74
11440;BME280;5776;51.814;4.510;2022-07-29T12:22:47;101796.16;;;21.86;52.69
11440;BME280;5776;51.814;4.510;2022-07-29T12:25:15;101796.28;;;21.89;53.41
11440;BME280;5776;51.814;4.510;2022-07-29T12:27:42;101798.94;;;21.86;52.80
11440;BME280;5776;51.814;4.510;2022-07-29T12:30:15;101795.00;;;21.74;53.13
11440;BME280;5776;51.814;4.510;2022-07-29T12:32:46;101792.84;;;21.59;52.93
11440;BME280;5776;51.814;4.510;2022-07-29T12:35:18;101790.09;;;21.59;53.07
11440;BME280;5776;51.814;4.510;2022-07-29T12:37:46;101796.09;;;21.61;52.83
11440;BME280;5776;51.814;4.510;2022-07-29T12:40:18;101789.75;;;21.61;53.04
11440;BME280;5776;51.814;4.510;2022-07-29T12:43:06;101788.75;;;21.65;53.33
11440;BME280;5776;51.814;4.510;2022-07-29T12:45:33;101792.91;;;21.71;53.40
11440;BME280;5776;51.814;4.510;2022-07-29T12:47:59;101789.03;;;21.85;52.55
11440;BME280;5776;51.814;4.510;2022-07-29T12:50:25;101784.31;;;21.85;52.33
11440;BME280;5776;51.814;4.510;2022-07-29T12:52:51;101782.13;;;21.91;52.47
11440;BME280;5776;51.814;4.510;2022-07-29T12:55:43;101787.22;;;22.01;52.58
11440;BME280;5776;51.814;4.510;2022-07-29T12:58:10;101796.91;;;22.07;53.03
11440;BME280;5776;51.814;4.510;2022-07-29T13:00:36;101787.34;;;22.05;52.86
11440;BME280;5776;51.814;4.510;2022-07-29T13:03:02;101780.63;;;21.93;52.05
11440;BME280;5776;51.814;4.510;2022-07-29T13:05:42;101781.06;;;21.83;52.06
11440;BME280;5776;51.814;4.510;2022-07-29T13:08:13;101774.03;;;21.86;52.52
11440;BME280;5776;51.814;4.510;2022-07-29T13:10:40;101786.75;;;21.99;51.94
11440;BME280;5776;51.814;4.510;2022-07-29T13:13:15;101780.75;;;22.09;52.27
11440;BME280;5776;51.814;4.510;2022-07-29T13:15:43;101778.47;;;22.11;52.59
11440;BME280;5776;51.814;4.510;2022-07-29T13:18:29;101783.53;;;21.97;52.48
11440;BME280;5776;51.814;4.510;2022-07-29T13:20:55;101786.88;;;22.03;52.48
11440;BME280;5776;51.814;4.510;2022-07-29T13:23:22;101784.44;;;22.01;52.91
11440;BME280;5776;51.814;4.510;2022-07-29T13:25:48;101791.59;;;22.02;53.48
11440;BME280;5776;51.814;4.510;2022-07-29T13:28:14;101785.03;;;22.07;52.55
11440;BME280;5776;51.814;4.510;2022-07-29T13:30:40;101785.03;;;22.07;52.67
11440;BME280;5776;51.814;4.510;2022-07-29T13:33:09;101789.75;;;22.06;53.13
11440;BME280;5776;51.814;4.510;2022-07-29T13:35:35;101790.91;;;22.05;53.21
11440;BME280;5776;51.814;4.510;2022-07-29T13:38:01;101787.34;;;22.05;53.32
11440;BME280;5776;51.814;4.510;2022-07-29T13:40:27;101788.94;;;22.06;53.34
11440;BME280;5776;51.814;4.510;2022-07-29T13:42:54;101790.34;;;21.99;53.44
11440;BME280;5776;51.814;4.510;2022-07-29T13:45:20;101789.06;;;21.97;53.36
11440;BME280;5776;51.814;4.510;2022-07-29T13:47:46;101787.53;;;21.87;53.64
11440;BME280;5776;51.814;4.510;2022-07-29T13:50:12;101786.38;;;21.88;53.49
11440;BME280;5776;51.814;4.510;2022-07-29T13:52:38;101784.41;;;21.89;53.28
11440;BME280;5776;51.814;4.510;2022-07-29T13:55:04;101789.03;;;21.85;54.03